createdAt,value
2019-01-13T00:00:32.366Z,0
2019-01-13T00:01:42.334Z,0
2019-01-13T00:02:52.007Z,0
2019-01-13T00:04:01.675Z,0
2019-01-13T00:05:11.097Z,0
2019-01-13T00:06:20.765Z,0
2019-01-13T00:07:31.455Z,0
2019-01-13T00:08:41.380Z,0
2019-01-13T00:09:51.053Z,0
2019-01-13T00:11:00.234Z,0
2019-01-13T00:12:09.409Z,0
2019-01-13T00:13:19.342Z,0
2019-01-13T00:14:29.384Z,0
2019-01-13T00:15:39.055Z,0
2019-01-13T00:16:48.476Z,0
2019-01-13T00:17:58.148Z,0
2019-01-13T00:19:07.577Z,0
2019-01-13T00:20:17.506Z,0
2019-01-13T00:21:27.427Z,0
2019-01-13T00:22:37.101Z,0
2019-01-13T00:23:47.008Z,0
2019-01-13T00:24:56.775Z,0
2019-01-13T00:26:06.710Z,0
2019-01-13T00:27:16.379Z,0
2019-01-13T00:28:26.049Z,0
2019-01-13T00:29:35.475Z,0
2019-01-13T00:30:45.399Z,0
2019-01-13T00:31:55.329Z,0
2019-01-13T00:33:05.010Z,0
2019-01-13T00:34:14.684Z,0
2019-01-13T00:35:24.611Z,0
2019-01-13T00:36:34.541Z,0
2019-01-13T00:37:44.465Z,0
2019-01-13T00:38:54.386Z,0
2019-01-13T00:40:03.335Z,0
2019-01-13T00:41:13.088Z,0
2019-01-13T00:42:22.771Z,0
2019-01-13T00:43:32.448Z,0
2019-01-13T00:44:43.776Z,0
2019-01-13T00:45:53.796Z,0
2019-01-13T00:47:03.468Z,0
2019-01-13T00:48:12.891Z,0
2019-01-13T00:49:22.811Z,0
2019-01-13T00:50:32.244Z,0
2019-01-13T00:51:41.663Z,0
2019-01-13T00:52:51.345Z,0
2019-01-13T00:54:01.018Z,0
2019-01-13T00:55:10.692Z,0
2019-01-13T00:56:20.611Z,0
2019-01-13T00:57:30.030Z,0
2019-01-13T00:58:39.949Z,0
2019-01-13T00:59:49.870Z,0
2019-01-13T01:00:59.542Z,0
2019-01-13T01:02:09.218Z,0
2019-01-13T01:03:18.939Z,0
2019-01-13T01:04:28.863Z,0
2019-01-13T01:05:38.290Z,0
2019-01-13T01:06:47.974Z,0
2019-01-13T01:07:57.402Z,0
2019-01-13T01:09:07.079Z,0
2019-01-13T01:10:16.744Z,0
2019-01-13T01:11:26.675Z,0
2019-01-13T01:12:36.095Z,0
2019-01-13T01:13:45.520Z,0
2019-01-13T01:14:55.440Z,0
2019-01-13T01:16:05.117Z,0
2019-01-13T01:17:14.851Z,0
2019-01-13T01:18:24.283Z,0
2019-01-13T01:19:33.718Z,0
2019-01-13T01:20:43.396Z,0
2019-01-13T01:21:56.116Z,0
2019-01-13T01:23:05.552Z,0
2019-01-13T01:24:15.226Z,0
2019-01-13T01:25:25.143Z,0
2019-01-13T01:26:34.810Z,0
2019-01-13T01:27:44.229Z,0
2019-01-13T01:28:53.897Z,0
2019-01-13T01:30:03.826Z,0
2019-01-13T01:31:13.496Z,0
2019-01-13T01:32:22.922Z,0
2019-01-13T01:33:33.261Z,0
2019-01-13T01:34:42.938Z,0
2019-01-13T01:35:52.621Z,0
2019-01-13T01:37:03.782Z,0
2019-01-13T01:38:13.459Z,0
2019-01-13T01:39:23.135Z,0
2019-01-13T01:40:32.819Z,0
2019-01-13T01:41:42.506Z,0
2019-01-13T01:42:51.934Z,0
2019-01-13T01:44:01.118Z,0
2019-01-13T01:45:10.793Z,0
2019-01-13T01:46:20.218Z,0
2019-01-13T01:47:29.646Z,0
2019-01-13T01:48:39.322Z,0
2019-01-13T01:49:49.250Z,0
2019-01-13T01:50:59.174Z,0
2019-01-13T01:52:08.859Z,0
2019-01-13T01:53:18.546Z,0
2019-01-13T01:54:27.967Z,0
2019-01-13T01:55:37.898Z,0
2019-01-13T01:56:47.824Z,0
2019-01-13T01:57:57.511Z,0
2019-01-13T01:59:06.683Z,0
2019-01-13T02:00:16.610Z,0
2019-01-13T02:01:25.838Z,0
2019-01-13T02:02:35.511Z,0
2019-01-13T02:03:45.534Z,0
2019-01-13T02:04:55.503Z,0
2019-01-13T02:06:04.699Z,0
2019-01-13T02:07:14.469Z,0
2019-01-13T02:08:23.889Z,0
2019-01-13T02:09:33.591Z,0
2019-01-13T02:10:43.021Z,0
2019-01-13T02:11:52.695Z,0
2019-01-13T02:13:02.120Z,0
2019-01-13T02:14:11.803Z,0
2019-01-13T02:15:21.223Z,0
2019-01-13T02:16:30.655Z,0
2019-01-13T02:17:40.078Z,0
2019-01-13T02:18:49.751Z,0
2019-01-13T02:19:59.427Z,0
2019-01-13T02:21:09.359Z,0
2019-01-13T02:22:19.284Z,0
2019-01-13T02:23:29.217Z,0
2019-01-13T02:24:39.140Z,0
2019-01-13T02:25:48.813Z,0
2019-01-13T02:26:58.486Z,0
2019-01-13T02:28:07.915Z,0
2019-01-13T02:29:17.595Z,0
2019-01-13T02:30:27.301Z,0
2019-01-13T02:33:00.120Z,0
2019-01-13T02:34:10.054Z,0
2019-01-13T02:35:19.737Z,0
2019-01-13T02:36:29.417Z,0
2019-01-13T02:37:38.854Z,0
2019-01-13T02:38:48.280Z,0
2019-01-13T02:39:58.219Z,0
2019-01-13T02:41:07.906Z,0
2019-01-13T02:42:17.823Z,0
2019-01-13T02:43:27.508Z,0
2019-01-13T02:44:36.995Z,0
2019-01-13T02:45:46.920Z,0
2019-01-13T02:46:56.605Z,0
2019-01-13T02:48:06.301Z,0
2019-01-13T02:49:15.978Z,0
2019-01-13T02:50:25.668Z,0
2019-01-13T02:51:35.391Z,0
2019-01-13T02:52:45.107Z,0
2019-01-13T02:53:54.792Z,0
2019-01-13T02:55:04.478Z,0
2019-01-13T02:56:14.169Z,0
2019-01-13T02:57:24.097Z,0
2019-01-13T02:58:33.588Z,0
2019-01-13T02:59:43.532Z,0
2019-01-13T03:00:59.549Z,0
2019-01-13T03:02:09.244Z,0
2019-01-13T03:03:20.439Z,0
2019-01-13T03:04:30.135Z,0
2019-01-13T03:05:40.081Z,0
2019-01-13T03:06:50.009Z,0
2019-01-13T03:07:59.190Z,0
2019-01-13T03:09:08.644Z,0
2019-01-13T03:10:18.579Z,0
2019-01-13T03:11:28.276Z,0
2019-01-13T03:12:37.713Z,0
2019-01-13T03:13:47.645Z,0
2019-01-13T03:14:57.333Z,0
2019-01-13T03:16:06.767Z,0
2019-01-13T03:17:16.726Z,0
2019-01-13T03:18:26.409Z,0
2019-01-13T03:19:36.342Z,0
2019-01-13T03:20:45.789Z,0
2019-01-13T03:21:55.722Z,0
2019-01-13T03:23:05.661Z,0
2019-01-13T03:24:15.347Z,0
2019-01-13T03:25:25.031Z,0
2019-01-13T03:26:34.969Z,0
2019-01-13T03:27:44.934Z,0
2019-01-13T03:28:54.878Z,0
2019-01-13T03:30:04.610Z,0
2019-01-13T03:31:19.599Z,0
2019-01-13T03:32:29.548Z,0
2019-01-13T03:33:39.484Z,0
2019-01-13T03:34:48.478Z,0
2019-01-13T03:35:58.408Z,0
2019-01-13T03:37:08.339Z,0
2019-01-13T03:38:18.014Z,0
2019-01-13T03:39:27.457Z,0
2019-01-13T03:40:37.139Z,0
2019-01-13T03:41:46.818Z,0
2019-01-13T03:42:56.506Z,0
2019-01-13T03:44:05.938Z,0
2019-01-13T03:45:15.880Z,0
2019-01-13T03:46:25.822Z,0
2019-01-13T03:47:35.511Z,0
2019-01-13T03:48:45.448Z,0
2019-01-13T03:49:55.134Z,0
2019-01-13T03:51:04.815Z,0
2019-01-13T03:52:14.736Z,0
2019-01-13T03:53:24.419Z,0
2019-01-13T03:54:34.105Z,0
2019-01-13T03:55:43.535Z,0
2019-01-13T03:56:52.980Z,0
2019-01-13T03:58:02.911Z,0
2019-01-13T03:59:12.340Z,0
2019-01-13T04:00:21.772Z,0
2019-01-13T04:01:31.204Z,0
2019-01-13T04:02:40.880Z,0
2019-01-13T04:03:50.309Z,0
2019-01-13T04:05:00.230Z,0
2019-01-13T04:06:10.159Z,0
2019-01-13T04:07:19.845Z,0
2019-01-13T04:08:29.769Z,0
2019-01-13T04:09:38.945Z,0
2019-01-13T04:10:48.871Z,0
2019-01-13T04:11:58.814Z,0
2019-01-13T04:13:08.757Z,0
2019-01-13T04:14:18.687Z,0
2019-01-13T04:15:28.615Z,0
2019-01-13T04:16:38.297Z,0
2019-01-13T04:17:47.720Z,0
2019-01-13T04:18:57.401Z,0
2019-01-13T04:20:07.131Z,0
2019-01-13T04:21:16.805Z,0
2019-01-13T04:22:26.482Z,0
2019-01-13T04:23:35.906Z,0
2019-01-13T04:24:45.688Z,0
2019-01-13T04:25:55.360Z,0
2019-01-13T04:27:05.120Z,0
2019-01-13T04:28:14.805Z,0
2019-01-13T04:29:24.484Z,0
2019-01-13T04:30:33.935Z,0
2019-01-13T04:31:43.612Z,0
2019-01-13T04:32:53.041Z,0
2019-01-13T04:34:02.733Z,0
2019-01-13T04:35:12.441Z,0
2019-01-13T04:36:22.136Z,0
2019-01-13T04:37:32.086Z,0
2019-01-13T04:38:42.019Z,0
2019-01-13T04:39:51.693Z,0
2019-01-13T04:41:01.119Z,0
2019-01-13T04:42:10.552Z,0
2019-01-13T04:43:20.481Z,0
2019-01-13T04:44:30.221Z,0
2019-01-13T04:45:40.166Z,0
2019-01-13T04:46:49.849Z,0
2019-01-13T04:47:59.786Z,0
2019-01-13T04:49:09.719Z,0
2019-01-13T04:50:19.674Z,0
2019-01-13T04:51:28.601Z,0
2019-01-13T04:52:38.276Z,0
2019-01-13T04:53:47.454Z,0
2019-01-13T04:54:57.141Z,0
2019-01-13T04:56:07.071Z,0
2019-01-13T04:57:16.247Z,0
2019-01-13T04:58:25.930Z,0
2019-01-13T04:59:35.359Z,0
2019-01-13T05:00:44.793Z,0
2019-01-13T05:01:54.233Z,0
2019-01-13T05:03:04.160Z,0
2019-01-13T05:04:14.104Z,0
2019-01-13T05:05:24.031Z,0
2019-01-13T05:06:33.225Z,0
2019-01-13T05:07:42.666Z,0
2019-01-13T05:08:52.093Z,0
2019-01-13T05:10:01.777Z,0
2019-01-13T05:11:11.456Z,0
2019-01-13T05:12:21.141Z,0
2019-01-13T05:13:31.068Z,0
2019-01-13T05:14:40.498Z,0
2019-01-13T05:15:49.532Z,0
2019-01-13T05:16:59.214Z,0
2019-01-13T05:18:08.908Z,0
2019-01-13T05:19:18.340Z,0
2019-01-13T05:20:28.271Z,0
2019-01-13T05:21:37.954Z,0
2019-01-13T05:22:47.892Z,0
2019-01-13T05:23:57.565Z,0
2019-01-13T05:25:06.995Z,0
2019-01-13T05:26:15.922Z,0
2019-01-13T05:27:26.763Z,0
2019-01-13T05:28:35.942Z,0
2019-01-13T05:29:45.631Z,0
2019-01-13T05:30:55.309Z,0
2019-01-13T05:32:04.994Z,0
2019-01-13T05:33:14.928Z,0
2019-01-13T05:34:24.603Z,0
2019-01-13T05:35:34.278Z,0
2019-01-13T05:36:43.951Z,0
2019-01-13T05:37:53.379Z,0
2019-01-13T05:39:03.071Z,0
2019-01-13T05:40:12.755Z,0
2019-01-13T05:41:22.441Z,0
2019-01-13T05:42:32.128Z,0
2019-01-13T05:43:42.049Z,0
2019-01-13T05:44:51.549Z,0
2019-01-13T05:46:01.227Z,0
2019-01-13T05:47:11.166Z,0
2019-01-13T05:48:20.842Z,0
2019-01-13T05:49:30.269Z,0
2019-01-13T05:50:39.502Z,0
2019-01-13T05:51:49.194Z,0
2019-01-13T05:52:58.619Z,0
2019-01-13T05:54:08.551Z,0
2019-01-13T05:55:18.493Z,0
2019-01-13T05:56:27.664Z,0
2019-01-13T05:57:38.500Z,0
2019-01-13T05:58:48.421Z,0
2019-01-13T05:59:57.850Z,0
2019-01-13T06:01:07.783Z,0
2019-01-13T06:02:17.708Z,0
2019-01-13T06:03:27.160Z,0
2019-01-13T06:04:37.091Z,0
2019-01-13T06:05:46.519Z,0
2019-01-13T06:06:55.937Z,0
2019-01-13T06:08:05.858Z,0
2019-01-13T06:09:15.531Z,0
2019-01-13T06:10:24.957Z,0
2019-01-13T06:11:34.385Z,0
2019-01-13T06:12:44.069Z,0
2019-01-13T06:13:53.498Z,0
2019-01-13T06:15:03.426Z,0
2019-01-13T06:16:13.409Z,0
2019-01-13T06:17:23.085Z,0
2019-01-13T06:18:33.023Z,0
2019-01-13T06:19:42.453Z,0
2019-01-13T06:20:51.680Z,0
2019-01-13T06:22:01.112Z,0
2019-01-13T06:23:11.055Z,0
2019-01-13T06:24:20.728Z,0
2019-01-13T06:25:30.429Z,0
2019-01-13T06:26:40.116Z,0
2019-01-13T06:27:49.542Z,0
2019-01-13T06:28:59.218Z,0
2019-01-13T06:30:09.247Z,0
2019-01-13T06:31:19.178Z,0
2019-01-13T06:32:28.608Z,0
2019-01-13T06:33:38.530Z,0
2019-01-13T06:34:48.221Z,0
2019-01-13T06:35:57.408Z,0
2019-01-13T06:37:07.334Z,0
2019-01-13T06:38:17.260Z,0
2019-01-13T06:39:26.693Z,0
2019-01-13T06:40:36.634Z,0
2019-01-13T06:41:46.574Z,0
2019-01-13T06:42:55.764Z,0
2019-01-13T06:44:05.437Z,0
2019-01-13T06:45:14.858Z,0
2019-01-13T06:46:24.047Z,0
2019-01-13T06:47:33.520Z,0
2019-01-13T06:48:43.194Z,0
2019-01-13T06:49:52.868Z,0
2019-01-13T06:51:02.296Z,0
2019-01-13T06:52:11.971Z,0
2019-01-13T06:53:21.183Z,0
2019-01-13T06:54:30.602Z,0
2019-01-13T06:55:40.029Z,0
2019-01-13T06:56:49.448Z,0
2019-01-13T06:57:59.373Z,0
2019-01-13T06:59:09.047Z,0
2019-01-13T07:00:19.025Z,0
2019-01-13T07:01:28.461Z,0
2019-01-13T07:02:38.140Z,0
2019-01-13T07:03:48.067Z,0
2019-01-13T07:04:57.241Z,0
2019-01-13T07:06:06.678Z,4
2019-01-13T07:07:16.604Z,4
2019-01-13T07:08:26.531Z,4
2019-01-13T07:09:36.459Z,4
2019-01-13T07:10:46.146Z,4
2019-01-13T07:11:55.574Z,8
2019-01-13T07:13:05.509Z,4
2019-01-13T07:14:14.683Z,12
2019-01-13T07:15:24.127Z,16
2019-01-13T07:16:33.805Z,16
2019-01-13T07:17:43.734Z,20
2019-01-13T07:18:53.659Z,24
2019-01-13T07:20:03.346Z,28
2019-01-13T07:21:13.024Z,24
2019-01-13T07:22:22.709Z,28
2019-01-13T07:23:32.633Z,28
2019-01-13T07:24:42.117Z,36
2019-01-13T07:25:51.292Z,48
2019-01-13T07:27:00.971Z,52
2019-01-13T07:28:10.647Z,44
2019-01-13T07:29:20.567Z,44
2019-01-13T07:30:30.252Z,52
2019-01-13T07:31:40.176Z,56
2019-01-13T07:32:50.121Z,64
2019-01-13T07:34:00.053Z,52
2019-01-13T07:35:09.474Z,52
2019-01-13T07:36:18.904Z,64
2019-01-13T07:37:28.325Z,80
2019-01-13T07:38:37.751Z,80
2019-01-13T07:39:47.681Z,92
2019-01-13T07:40:57.113Z,88
2019-01-13T07:42:07.040Z,108
2019-01-13T07:43:16.716Z,128
2019-01-13T07:44:26.395Z,148
2019-01-13T07:45:36.322Z,140
2019-01-13T07:46:45.251Z,148
2019-01-13T07:47:54.923Z,132
2019-01-13T07:49:04.605Z,148
2019-01-13T07:50:14.538Z,148
2019-01-13T07:51:23.988Z,164
2019-01-13T07:52:33.912Z,172
2019-01-13T07:53:43.581Z,232
2019-01-13T07:54:54.022Z,212
2019-01-13T07:56:03.699Z,204
2019-01-13T07:57:13.124Z,208
2019-01-13T07:58:22.802Z,188
2019-01-13T07:59:32.236Z,168
2019-01-13T08:00:41.417Z,188
2019-01-13T08:01:51.099Z,212
2019-01-13T08:03:01.031Z,208
2019-01-13T08:04:10.710Z,204
2019-01-13T08:05:20.388Z,236
2019-01-13T08:06:30.066Z,276
2019-01-13T08:07:39.502Z,260
2019-01-13T08:08:49.478Z,264
2019-01-13T08:09:58.908Z,252
2019-01-13T08:11:08.860Z,216
2019-01-13T08:12:18.291Z,248
2019-01-13T08:13:28.228Z,296
2019-01-13T08:14:37.903Z,332
2019-01-13T08:15:47.326Z,436
2019-01-13T08:16:56.807Z,536
2019-01-13T08:18:06.743Z,732
2019-01-13T08:19:16.677Z,708
2019-01-13T08:20:26.655Z,772
2019-01-13T08:21:36.358Z,608
2019-01-13T08:22:46.034Z,532
2019-01-13T08:23:55.712Z,540
2019-01-13T08:25:05.137Z,516
2019-01-13T08:26:15.061Z,516
2019-01-13T08:27:24.739Z,452
2019-01-13T08:28:34.416Z,472
2019-01-13T08:29:44.104Z,576
2019-01-13T08:30:53.843Z,596
2019-01-13T08:32:03.534Z,844
2019-01-13T08:33:13.216Z,888
2019-01-13T08:34:22.894Z,1052
2019-01-13T08:35:32.815Z,1216
2019-01-13T08:36:42.743Z,1268
2019-01-13T08:37:52.677Z,1392
2019-01-13T08:39:02.614Z,1416
2019-01-13T08:40:12.286Z,1152
2019-01-13T08:41:21.715Z,992
2019-01-13T08:42:31.393Z,952
2019-01-13T08:43:41.077Z,1168
2019-01-13T08:44:50.753Z,1256
2019-01-13T08:46:00.181Z,1264
2019-01-13T08:47:09.613Z,1240
2019-01-13T08:48:19.291Z,1292
2019-01-13T08:49:28.726Z,1436
2019-01-13T08:50:39.080Z,1420
2019-01-13T08:51:49.017Z,1404
2019-01-13T08:52:58.944Z,1324
2019-01-13T08:54:08.383Z,1248
2019-01-13T08:55:18.069Z,1332
2019-01-13T08:56:27.498Z,1324
2019-01-13T08:57:36.933Z,1360
2019-01-13T08:58:46.618Z,1252
2019-01-13T08:59:56.300Z,1284
2019-01-13T09:01:06.032Z,1328
2019-01-13T09:02:15.714Z,1420
2019-01-13T09:03:25.147Z,1556
2019-01-13T09:04:34.826Z,1644
2019-01-13T09:05:44.533Z,1640
2019-01-13T09:06:54.466Z,1648
2019-01-13T09:08:04.403Z,1808
2019-01-13T09:09:14.336Z,1592
2019-01-13T09:10:24.011Z,2072
2019-01-13T09:11:33.929Z,2116
2019-01-13T09:12:43.260Z,1904
2019-01-13T09:13:52.931Z,1624
2019-01-13T09:15:02.857Z,1732
2019-01-13T09:16:12.790Z,1636
2019-01-13T09:17:22.476Z,1640
2019-01-13T09:18:32.831Z,1576
2019-01-13T09:19:42.510Z,1560
2019-01-13T09:20:52.437Z,1796
2019-01-13T09:22:02.117Z,1936
2019-01-13T09:23:11.799Z,1884
2019-01-13T09:24:21.237Z,1976
2019-01-13T09:25:31.168Z,1892
2019-01-13T09:26:41.331Z,1836
2019-01-13T09:27:50.787Z,1656
2019-01-13T09:29:00.211Z,1524
2019-01-13T09:30:09.686Z,1424
2019-01-13T09:31:18.616Z,1536
2019-01-13T09:32:27.821Z,1528
2019-01-13T09:33:37.521Z,1368
2019-01-13T09:34:47.203Z,1360
2019-01-13T09:35:57.177Z,1388
2019-01-13T09:37:07.109Z,1284
2019-01-13T09:38:16.795Z,1448
2019-01-13T09:39:26.231Z,1396
2019-01-13T09:40:35.928Z,1500
2019-01-13T09:41:45.547Z,1508
2019-01-13T09:42:55.377Z,1380
2019-01-13T09:44:05.060Z,1540
2019-01-13T09:45:14.753Z,1640
2019-01-13T09:46:24.698Z,1520
2019-01-13T09:47:34.385Z,1644
2019-01-13T09:48:44.066Z,1848
2019-01-13T09:49:56.956Z,1860
2019-01-13T09:51:06.460Z,2024
2019-01-13T09:52:15.896Z,2016
2019-01-13T09:53:25.827Z,2096
2019-01-13T09:54:35.265Z,2128
2019-01-13T09:55:44.441Z,2328
2019-01-13T09:56:53.916Z,2236
2019-01-13T09:58:03.850Z,1852
2019-01-13T09:59:13.777Z,1852
2019-01-13T10:00:23.478Z,1892
2019-01-13T10:01:33.403Z,1868
2019-01-13T10:02:49.149Z,1824
2019-01-13T10:03:58.830Z,1808
2019-01-13T10:05:08.517Z,1944
2019-01-13T10:06:19.553Z,1816
2019-01-13T10:07:28.998Z,1884
2019-01-13T10:08:38.983Z,1792
2019-01-13T10:09:48.407Z,1768
2019-01-13T10:10:57.840Z,1552
2019-01-13T10:12:07.776Z,1728
2019-01-13T10:13:17.555Z,1484
2019-01-13T10:14:26.991Z,1636
2019-01-13T10:15:36.187Z,1512
2019-01-13T10:16:45.624Z,1552
2019-01-13T10:17:55.082Z,1548
2019-01-13T10:19:04.765Z,1640
2019-01-13T10:20:14.441Z,1592
2019-01-13T10:21:23.874Z,1884
2019-01-13T10:22:33.320Z,1872
2019-01-13T10:23:43.247Z,2028
2019-01-13T10:24:52.929Z,1896
2019-01-13T10:26:02.354Z,2208
2019-01-13T10:27:12.287Z,1924
2019-01-13T10:28:21.971Z,1920
2019-01-13T10:29:31.907Z,2044
2019-01-13T10:30:40.874Z,1860
2019-01-13T10:31:50.548Z,1988
2019-01-13T10:33:02.246Z,2156
2019-01-13T10:34:12.176Z,2008
2019-01-13T10:35:21.605Z,2264
2019-01-13T10:36:30.783Z,1960
2019-01-13T10:37:40.469Z,1940
2019-01-13T10:38:50.153Z,1900
2019-01-13T10:39:59.601Z,1888
2019-01-13T10:41:09.541Z,2212
2019-01-13T10:42:19.218Z,2076
2019-01-13T10:43:28.399Z,1976
2019-01-13T10:44:38.081Z,1580
2019-01-13T10:45:47.765Z,1532
2019-01-13T10:46:57.657Z,1676
2019-01-13T10:48:06.837Z,1480
2019-01-13T10:49:16.318Z,1556
2019-01-13T10:50:26.000Z,1776
2019-01-13T10:51:35.429Z,1644
2019-01-13T10:52:44.864Z,1512
2019-01-13T10:53:54.534Z,1404
2019-01-13T10:55:04.261Z,1748
2019-01-13T10:56:13.713Z,1692
2019-01-13T10:57:23.646Z,1900
2019-01-13T10:58:32.829Z,2192
2019-01-13T10:59:42.630Z,2384
2019-01-13T11:00:52.063Z,2088
2019-01-13T11:02:01.745Z,2552
2019-01-13T11:03:11.682Z,2416
2019-01-13T11:04:20.858Z,2184
2019-01-13T11:05:30.787Z,2068
2019-01-13T11:06:40.295Z,1880
2019-01-13T11:07:50.000Z,2064
2019-01-13T11:08:59.926Z,2036
2019-01-13T11:10:09.357Z,1972
2019-01-13T11:11:19.043Z,2036
2019-01-13T11:12:28.224Z,1880
2019-01-13T11:13:38.818Z,2092
2019-01-13T11:14:48.639Z,1724
2019-01-13T11:15:58.330Z,1492
2019-01-13T11:17:08.018Z,1636
2019-01-13T11:18:17.444Z,1588
2019-01-13T11:19:26.620Z,1872
2019-01-13T11:20:36.048Z,2116
2019-01-13T11:21:45.980Z,2268
2019-01-13T11:22:55.910Z,2384
2019-01-13T11:24:07.240Z,2312
2019-01-13T11:25:16.923Z,2324
2019-01-13T11:26:26.954Z,2300
2019-01-13T11:27:36.135Z,2060
2019-01-13T11:28:45.558Z,1980
2019-01-13T11:29:55.483Z,1752
2019-01-13T11:31:05.165Z,1652
2019-01-13T11:32:14.851Z,1588
2019-01-13T11:33:24.536Z,1600
2019-01-13T11:34:33.714Z,1340
2019-01-13T11:35:43.400Z,1544
2019-01-13T11:36:53.076Z,1596
2019-01-13T11:38:03.058Z,1500
2019-01-13T11:39:12.751Z,1424
2019-01-13T11:40:21.934Z,1656
2019-01-13T11:41:31.443Z,1572
2019-01-13T11:42:41.127Z,1348
2019-01-13T11:43:51.053Z,1240
2019-01-13T11:45:00.982Z,1316
2019-01-13T11:46:10.415Z,1548
2019-01-13T11:47:20.351Z,1404
2019-01-13T11:48:30.031Z,1304
2019-01-13T11:49:39.781Z,1324
2019-01-13T11:50:49.460Z,1252
2019-01-13T11:51:59.388Z,1496
2019-01-13T11:53:09.321Z,1368
2019-01-13T11:54:19.246Z,1576
2019-01-13T11:55:28.673Z,1768
2019-01-13T11:56:38.368Z,1664
2019-01-13T11:57:48.344Z,1536
2019-01-13T11:58:57.534Z,1420
2019-01-13T12:00:07.230Z,1720
2019-01-13T12:01:16.910Z,1716
2019-01-13T12:02:32.491Z,1952
2019-01-13T12:03:42.424Z,2004
2019-01-13T12:04:52.366Z,1984
2019-01-13T12:06:01.795Z,1948
2019-01-13T12:07:11.473Z,2168
2019-01-13T12:08:20.904Z,2144
2019-01-13T12:09:30.095Z,1816
2019-01-13T12:10:39.790Z,1720
2019-01-13T12:11:49.477Z,1620
2019-01-13T12:12:59.149Z,1560
2019-01-13T12:14:08.832Z,1468
2019-01-13T12:15:18.022Z,1700
2019-01-13T12:16:27.706Z,1340
2019-01-13T12:17:36.640Z,1476
2019-01-13T12:18:47.847Z,1308
2019-01-13T12:19:57.531Z,1612
2019-01-13T12:21:06.966Z,1404
2019-01-13T12:22:16.893Z,1376
2019-01-13T12:23:26.071Z,1384
2019-01-13T12:24:35.248Z,1348
2019-01-13T12:25:44.925Z,1524
2019-01-13T12:27:00.377Z,1336
2019-01-13T12:28:10.053Z,1092
2019-01-13T12:29:19.488Z,1204
2019-01-13T12:30:28.671Z,1144
2019-01-13T12:31:39.276Z,1252
2019-01-13T12:32:49.207Z,1272
2019-01-13T12:33:58.390Z,1436
2019-01-13T12:35:07.884Z,1412
2019-01-13T12:36:17.713Z,1316
2019-01-13T12:37:27.642Z,1188
2019-01-13T12:38:37.328Z,1080
2019-01-13T12:39:48.651Z,1020
2019-01-13T12:40:58.340Z,1032
2019-01-13T12:42:07.768Z,1348
2019-01-13T12:43:17.445Z,1444
2019-01-13T12:44:27.379Z,1580
2019-01-13T12:45:37.325Z,1632
2019-01-13T12:46:47.261Z,1672
2019-01-13T12:47:56.695Z,1892
2019-01-13T12:49:06.374Z,1836
2019-01-13T12:50:16.058Z,1708
2019-01-13T12:51:25.995Z,1600
2019-01-13T12:52:36.177Z,1416
2019-01-13T12:53:45.854Z,1236
2019-01-13T12:54:56.402Z,1076
2019-01-13T12:56:06.346Z,1156
2019-01-13T12:57:15.523Z,1256
2019-01-13T12:58:24.951Z,1576
2019-01-13T12:59:34.644Z,1640
2019-01-13T13:00:44.347Z,1452
2019-01-13T13:01:54.094Z,1248
2019-01-13T13:03:04.879Z,1112
2019-01-13T13:04:14.320Z,1056
2019-01-13T13:05:23.756Z,1392
2019-01-13T13:06:33.443Z,1708
2019-01-13T13:07:43.122Z,1804
2019-01-13T13:08:52.811Z,2052
2019-01-13T13:10:02.012Z,3108
2019-01-13T13:11:11.691Z,2756
2019-01-13T13:12:21.118Z,2824
2019-01-13T13:13:30.547Z,2772
2019-01-13T13:14:40.232Z,2112
2019-01-13T13:15:49.668Z,1860
2019-01-13T13:17:01.002Z,1792
2019-01-13T13:18:10.687Z,1500
2019-01-13T13:19:20.118Z,1212
2019-01-13T13:20:30.052Z,1060
2019-01-13T13:21:39.478Z,756
2019-01-13T13:22:49.153Z,740
2019-01-13T13:23:58.581Z,680
2019-01-13T13:25:08.011Z,728
2019-01-13T13:26:17.685Z,672
2019-01-13T13:27:27.365Z,592
2019-01-13T13:28:36.796Z,792
2019-01-13T13:29:46.473Z,884
2019-01-13T13:30:55.895Z,980
2019-01-13T13:32:05.821Z,1100
2019-01-13T13:33:15.252Z,1184
2019-01-13T13:34:24.458Z,1028
2019-01-13T13:35:39.567Z,872
2019-01-13T13:36:49.460Z,764
2019-01-13T13:37:58.386Z,784
2019-01-13T13:39:07.831Z,1076
2019-01-13T13:40:17.016Z,1072
2019-01-13T13:41:26.208Z,788
2019-01-13T13:42:36.144Z,668
2019-01-13T13:43:45.826Z,760
2019-01-13T13:44:55.251Z,1216
2019-01-13T13:46:04.706Z,1176
2019-01-13T13:47:13.890Z,1696
2019-01-13T13:48:23.821Z,2108
2019-01-13T13:49:33.509Z,2004
2019-01-13T13:50:43.186Z,1944
2019-01-13T13:51:52.365Z,1820
2019-01-13T13:53:02.040Z,1632
2019-01-13T13:54:11.468Z,1344
2019-01-13T13:55:21.149Z,1024
2019-01-13T13:56:30.583Z,668
2019-01-13T13:57:40.016Z,544
2019-01-13T13:58:49.697Z,468
2019-01-13T14:00:00.273Z,448
2019-01-13T14:01:09.954Z,488
2019-01-13T14:02:19.631Z,380
2019-01-13T14:03:29.564Z,260
2019-01-13T14:04:39.245Z,204
2019-01-13T14:05:48.667Z,220
2019-01-13T14:06:58.340Z,344
2019-01-13T14:08:08.274Z,496
2019-01-13T14:09:17.452Z,440
2019-01-13T14:10:26.884Z,632
2019-01-13T14:11:37.764Z,796
2019-01-13T14:12:47.272Z,664
2019-01-13T14:13:56.954Z,792
2019-01-13T14:15:06.884Z,808
2019-01-13T14:16:16.310Z,964
2019-01-13T14:17:25.986Z,552
2019-01-13T14:18:35.662Z,420
2019-01-13T14:19:45.093Z,468
2019-01-13T14:20:54.779Z,456
2019-01-13T14:22:04.273Z,500
2019-01-13T14:23:13.457Z,668
2019-01-13T14:24:23.389Z,728
2019-01-13T14:25:34.360Z,956
2019-01-13T14:26:44.047Z,840
2019-01-13T14:27:53.727Z,880
2019-01-13T14:29:03.403Z,860
2019-01-13T14:30:12.836Z,900
2019-01-13T14:31:22.266Z,604
2019-01-13T14:32:31.948Z,644
2019-01-13T14:33:41.374Z,628
2019-01-13T14:34:50.566Z,716
2019-01-13T14:36:00.499Z,684
2019-01-13T14:37:09.936Z,736
2019-01-13T14:38:19.862Z,876
2019-01-13T14:39:29.804Z,736
2019-01-13T14:40:39.233Z,544
2019-01-13T14:41:48.666Z,424
2019-01-13T14:42:58.358Z,564
2019-01-13T14:44:07.799Z,684
2019-01-13T14:45:17.235Z,548
2019-01-13T14:46:27.162Z,428
2019-01-13T14:47:36.587Z,432
2019-01-13T14:48:46.260Z,384
2019-01-13T14:49:56.200Z,328
2019-01-13T14:51:05.373Z,380
2019-01-13T14:52:15.050Z,428
2019-01-13T14:53:24.735Z,456
2019-01-13T14:54:34.409Z,400
2019-01-13T14:55:44.102Z,292
2019-01-13T14:56:53.526Z,212
2019-01-13T14:58:03.467Z,220
2019-01-13T14:59:13.204Z,228
2019-01-13T15:00:23.136Z,356
2019-01-13T15:01:32.564Z,484
2019-01-13T15:02:42.499Z,492
2019-01-13T15:03:52.176Z,280
2019-01-13T15:05:07.562Z,420
2019-01-13T15:06:16.992Z,580
2019-01-13T15:07:26.166Z,352
2019-01-13T15:08:35.599Z,220
2019-01-13T15:09:45.343Z,188
2019-01-13T15:10:54.781Z,144
2019-01-13T15:12:04.478Z,164
2019-01-13T15:13:14.529Z,192
2019-01-13T15:14:23.955Z,136
2019-01-13T15:15:33.382Z,96
2019-01-13T15:16:42.820Z,88
2019-01-13T15:17:52.509Z,92
2019-01-13T15:19:02.418Z,104
2019-01-13T15:20:12.112Z,176
2019-01-13T15:21:21.549Z,188
2019-01-13T15:22:30.727Z,148
2019-01-13T15:23:40.411Z,124
2019-01-13T15:24:51.304Z,116
2019-01-13T15:26:01.246Z,116
2019-01-13T15:27:10.420Z,116
2019-01-13T15:28:19.849Z,104
2019-01-13T15:29:29.784Z,112
2019-01-13T15:30:39.470Z,100
2019-01-13T15:31:49.404Z,104
2019-01-13T15:32:59.342Z,144
2019-01-13T15:34:14.410Z,116
2019-01-13T15:35:24.089Z,116
2019-01-13T15:36:33.521Z,72
2019-01-13T15:37:43.454Z,44
2019-01-13T15:38:52.635Z,56
2019-01-13T15:40:02.313Z,44
2019-01-13T15:41:13.822Z,40
2019-01-13T15:42:23.839Z,40
2019-01-13T15:43:33.273Z,40
2019-01-13T15:44:42.705Z,24
2019-01-13T15:45:52.386Z,24
2019-01-13T15:47:01.819Z,16
2019-01-13T15:48:11.761Z,16
2019-01-13T15:49:21.443Z,12
2019-01-13T15:50:30.641Z,4
2019-01-13T15:51:40.131Z,4
2019-01-13T15:52:49.815Z,4
2019-01-13T15:53:59.030Z,4
2019-01-13T15:55:08.477Z,0
2019-01-13T15:56:18.158Z,4
2019-01-13T15:57:28.084Z,4
2019-01-13T15:58:37.518Z,0
2019-01-13T15:59:46.697Z,0
2019-01-13T16:00:56.123Z,0
2019-01-13T16:02:05.796Z,0
2019-01-13T16:03:15.724Z,0
2019-01-13T16:04:24.909Z,0
2019-01-13T16:05:34.837Z,0
2019-01-13T16:06:44.513Z,0
2019-01-13T16:07:53.690Z,0
2019-01-13T16:09:03.134Z,0
2019-01-13T16:10:13.057Z,0
2019-01-13T16:11:22.727Z,0
2019-01-13T16:12:32.659Z,0
2019-01-13T16:13:42.079Z,0
2019-01-13T16:14:52.007Z,0
2019-01-13T16:16:01.933Z,0
2019-01-13T16:17:11.610Z,0
2019-01-13T16:18:21.549Z,0
2019-01-13T16:19:31.257Z,0
2019-01-13T16:20:40.684Z,0
2019-01-13T16:21:50.112Z,0
2019-01-13T16:23:00.038Z,0
2019-01-13T16:24:09.967Z,0
2019-01-13T16:25:19.453Z,0